createdAt,value
2023-03-31T00:10:29.113Z,12.1
2023-03-31T00:25:39.952Z,12.1
2023-03-31T00:40:49.538Z,11.9
2023-03-31T00:56:03.726Z,11.8
2023-03-31T01:11:14.757Z,11.8
2023-03-31T01:26:24.171Z,11.7
2023-03-31T01:41:33.587Z,11.6
2023-03-31T01:56:43.078Z,11.5
2023-03-31T02:11:52.708Z,11.4
2023-03-31T02:27:02.489Z,11.3
2023-03-31T02:42:11.535Z,11.2
2023-03-31T02:57:21.358Z,11.2
2023-03-31T03:12:31.755Z,11.2
2023-03-31T03:27:41.493Z,11.1
2023-03-31T03:42:51.087Z,11.1
2023-03-31T03:58:00.538Z,11.1
2023-03-31T04:13:10.275Z,11
2023-03-31T04:28:20.273Z,11
2023-03-31T04:43:30.234Z,11
2023-03-31T04:58:39.585Z,10.9
2023-03-31T05:13:49.137Z,10.9
2023-03-31T05:28:58.744Z,10.9
2023-03-31T05:44:08.246Z,10.9
2023-03-31T05:59:17.931Z,10.8
2023-03-31T06:14:27.728Z,10.7
2023-03-31T06:29:38.123Z,10.8
2023-03-31T06:44:47.682Z,10.9
2023-03-31T06:59:57.406Z,10.9
2023-03-31T07:15:07.088Z,11
2023-03-31T07:30:16.610Z,11.1
2023-03-31T07:45:26.421Z,11.1
2023-03-31T08:00:35.866Z,11.1
2023-03-31T08:15:45.939Z,11.3
2023-03-31T08:30:56.225Z,11.4
2023-03-31T08:46:05.998Z,11.6
2023-03-31T09:01:17.385Z,11.7
2023-03-31T09:16:27.587Z,11.7
2023-03-31T09:31:40.429Z,11.6
2023-03-31T09:46:50.732Z,11.5
2023-03-31T10:02:01.621Z,11.4
2023-03-31T10:17:11.921Z,11.5
2023-03-31T10:32:21.314Z,11.5
2023-03-31T10:47:31.243Z,11.5
2023-03-31T11:02:40.929Z,11.4
2023-03-31T11:17:51.087Z,11.3
2023-03-31T11:33:00.829Z,11.3
2023-03-31T11:48:10.822Z,11.2
2023-03-31T12:03:20.760Z,11.3
2023-03-31T12:18:31.257Z,11.5
2023-03-31T12:33:41.273Z,11.8
2023-03-31T12:48:54.087Z,12.1
2023-03-31T13:04:05.739Z,12.4
2023-03-31T13:19:15.920Z,12.4
2023-03-31T13:34:26.972Z,12.3
2023-03-31T13:49:36.367Z,12.1
2023-03-31T14:04:46.142Z,12.1
2023-03-31T14:19:56.104Z,12.5
2023-03-31T14:35:06.228Z,13.6
2023-03-31T14:50:16.310Z,14
2023-03-31T15:05:25.006Z,13.5
2023-03-31T15:20:35.307Z,12.8
2023-03-31T15:35:44.221Z,12.4
2023-03-31T15:50:53.589Z,12.2
2023-03-31T16:06:02.768Z,12
2023-03-31T16:21:12.174Z,11.8
2023-03-31T16:36:21.963Z,11.8
2023-03-31T16:51:32.186Z,11.9
2023-03-31T17:06:42.062Z,12
2023-03-31T17:21:52.007Z,11.9
2023-03-31T17:37:02.188Z,11.8
2023-03-31T17:52:11.983Z,11.7
2023-03-31T18:07:21.333Z,11.7
2023-03-31T18:22:30.809Z,11.6
2023-03-31T18:37:40.212Z,11.5
2023-03-31T18:52:49.739Z,11.5
2023-03-31T19:07:59.087Z,11.4
2023-03-31T19:23:09.260Z,11.4
2023-03-31T19:38:19.346Z,11.3
2023-03-31T19:53:28.823Z,11.2
2023-03-31T20:08:38.045Z,11.1
2023-03-31T20:23:47.612Z,11.1
2023-03-31T20:38:56.769Z,11
2023-03-31T20:54:07.305Z,11
2023-03-31T21:09:17.105Z,11
2023-03-31T21:24:26.422Z,11
2023-03-31T21:39:36.604Z,11
2023-03-31T21:54:45.845Z,10.9
2023-03-31T22:09:55.366Z,10.9
2023-03-31T22:25:04.905Z,10.8
2023-03-31T22:40:14.934Z,10.7
2023-03-31T22:55:24.434Z,10.8
2023-03-31T23:10:33.842Z,10.8
2023-03-31T23:25:43.213Z,10.7
2023-03-31T23:40:52.770Z,10.6
2023-03-31T23:56:02.544Z,10.6
